createdAt,value
2018-12-08T00:02:03.998Z,100278.94
2018-12-08T00:04:43.848Z,100288.91
2018-12-08T00:07:23.205Z,100303.23
2018-12-08T00:10:07.679Z,100305.85
2018-12-08T00:12:51.470Z,100307.28
2018-12-08T00:15:33.460Z,100305.20
2018-12-08T00:18:15.899Z,100304.08
2018-12-08T00:20:55.884Z,100298.20
2018-12-08T00:23:36.407Z,100306.03
2018-12-08T00:26:17.100Z,100295.47
2018-12-08T00:28:59.812Z,100301.67
2018-12-08T00:31:52.735Z,100297.83
2018-12-08T00:34:36.258Z,100301.00
2018-12-08T00:37:17.308Z,100302.86
2018-12-08T00:40:01.950Z,100301.09
2018-12-08T00:42:44.101Z,100305.77
2018-12-08T00:45:23.888Z,100301.55
2018-12-08T00:48:03.865Z,100303.02
2018-12-08T00:50:46.464Z,100311.91
2018-12-08T00:53:25.278Z,100310.19
2018-12-08T00:56:04.273Z,100303.30
2018-12-08T00:58:43.850Z,100304.71
2018-12-08T01:01:26.842Z,100305.45
2018-12-08T01:04:06.524Z,100305.44
2018-12-08T01:06:46.199Z,100297.45
2018-12-08T01:09:26.303Z,100300.12
2018-12-08T01:12:07.820Z,100310.11
2018-12-08T01:14:47.782Z,100306.47
2018-12-08T01:17:30.756Z,100293.16
2018-12-08T01:20:12.730Z,100292.88
2018-12-08T01:22:53.519Z,100294.16
2018-12-08T01:25:34.023Z,100296.41
2018-12-08T01:28:13.936Z,100288.41
2018-12-08T01:30:56.167Z,100292.45
2018-12-08T01:33:37.592Z,100297.52
2018-12-08T01:36:18.301Z,100287.72
2018-12-08T01:39:00.214Z,100288.69
2018-12-08T01:41:41.682Z,100279.98
2018-12-08T01:44:26.095Z,100284.72
2018-12-08T01:47:06.279Z,100284.16
2018-12-08T01:49:47.528Z,100286.41
2018-12-08T01:52:27.850Z,100281.53
2018-12-08T01:55:10.245Z,100275.90
2018-12-08T01:57:50.313Z,100283.96
2018-12-08T02:00:30.288Z,100285.16
2018-12-08T02:03:10.878Z,100293.72
2018-12-08T02:05:50.185Z,100281.68
2018-12-08T02:08:32.482Z,100276.94
2018-12-08T02:11:13.009Z,100270.06
2018-12-08T02:13:55.460Z,100268.51
2018-12-08T02:16:44.179Z,100275.26
2018-12-08T02:19:26.618Z,100270.44
2018-12-08T02:22:08.206Z,100267.33
2018-12-08T02:24:49.102Z,100260.48
2018-12-08T02:27:32.182Z,100264.06
2018-12-08T02:30:12.033Z,100261.09
2018-12-08T02:32:52.530Z,100259.17
2018-12-08T02:35:33.382Z,100239.41
2018-12-08T02:38:15.316Z,100248.62
2018-12-08T02:40:55.760Z,100250.17
2018-12-08T02:43:36.658Z,100258.83
2018-12-08T02:46:21.285Z,100250.59
2018-12-08T02:49:01.638Z,100241.71
2018-12-08T02:51:43.838Z,100230.97
2018-12-08T02:54:24.649Z,100227.36
2018-12-08T02:57:07.097Z,100231.52
2018-12-08T02:59:51.802Z,100226.20
2018-12-08T03:02:34.233Z,100219.64
2018-12-08T03:05:15.636Z,100227.06
2018-12-08T03:07:57.391Z,100229.59
2018-12-08T03:10:43.326Z,100227.39
2018-12-08T03:13:27.289Z,100228.75
2018-12-08T03:16:12.892Z,100223.22
2018-12-08T03:18:59.383Z,100227.79
2018-12-08T03:21:41.826Z,100228.16
2018-12-08T03:24:26.738Z,100231.86
2018-12-08T03:27:10.478Z,100229.71
2018-12-08T03:29:52.838Z,100239.94
2018-12-08T03:32:37.714Z,100236.18
2018-12-08T03:35:21.071Z,100240.67
2018-12-08T03:38:02.106Z,100227.89
2018-12-08T03:40:45.990Z,100238.09
2018-12-08T03:43:27.342Z,100210.41
2018-12-08T03:46:08.676Z,100219.87
2018-12-08T03:48:50.713Z,100220.59
2018-12-08T03:51:37.049Z,100223.11
2018-12-08T03:54:20.640Z,100218.22
2018-12-08T03:57:05.881Z,100233.30
2018-12-08T03:59:48.165Z,100227.56
2018-12-08T04:02:35.425Z,100222.73
2018-12-08T04:05:19.988Z,100219.39
2018-12-08T04:08:05.240Z,100225.12
2018-12-08T04:10:47.703Z,100208.22
2018-12-08T04:13:29.585Z,100206.92
2018-12-08T04:16:12.996Z,100216.85
2018-12-08T04:18:56.462Z,100209.42
2018-12-08T04:21:43.132Z,100201.53
2018-12-08T04:24:29.016Z,100192.41
2018-12-08T04:27:11.884Z,100192.26
2018-12-08T04:29:55.268Z,100206.86
2018-12-08T04:32:38.908Z,100208.81
2018-12-08T04:35:22.953Z,100214.97
2018-12-08T04:38:07.324Z,100217.01
2018-12-08T04:40:52.129Z,100214.08
2018-12-08T04:43:37.588Z,100210.84
2018-12-08T04:46:21.932Z,100208.73
2018-12-08T04:49:04.885Z,100219.09
2018-12-08T04:51:47.729Z,100222.02
2018-12-08T04:54:28.926Z,100225.41
2018-12-08T04:57:12.556Z,100221.81
2018-12-08T04:59:53.641Z,100220.91
2018-12-08T05:02:36.363Z,100223.34
2018-12-08T05:05:18.256Z,100218.06
2018-12-08T05:07:59.165Z,100210.05
2018-12-08T05:10:40.279Z,100211.30
2018-12-08T05:13:22.780Z,100212.89
2018-12-08T05:16:03.439Z,100210.72
2018-12-08T05:18:45.475Z,100204.31
2018-12-08T05:21:34.270Z,100206.20
2018-12-08T05:24:18.221Z,100215.92
2018-12-08T05:26:59.808Z,100219.52
2018-12-08T05:29:43.747Z,100231.54
2018-12-08T05:32:28.711Z,100212.57
2018-12-08T05:35:10.460Z,100224.90
2018-12-08T05:37:52.163Z,100228.75
2018-12-08T05:40:34.083Z,100226.20
2018-12-08T05:43:19.095Z,100220.06
2018-12-08T05:46:02.447Z,100218.83
2018-12-08T05:48:53.808Z,100224.13
2018-12-08T05:51:37.677Z,100214.89
2018-12-08T05:54:23.275Z,100230.70
2018-12-08T05:57:07.799Z,100232.45
2018-12-08T06:02:45.886Z,100238.89
2018-12-08T06:05:29.513Z,100256.66
2018-12-08T06:08:18.836Z,100248.91
2018-12-08T06:11:00.116Z,100269.94
2018-12-08T06:13:42.803Z,100263.26
2018-12-08T06:16:27.437Z,100263.12
2018-12-08T06:19:09.737Z,100275.63
2018-12-08T06:21:55.190Z,100263.62
2018-12-08T06:24:35.889Z,100269.73
2018-12-08T06:28:33.167Z,100279.31
2018-12-08T06:31:15.715Z,100278.72
2018-12-08T06:33:56.719Z,100275.00
2018-12-08T06:36:39.216Z,100284.52
2018-12-08T06:39:21.829Z,100287.44
2018-12-08T06:42:02.292Z,100289.14
2018-12-08T06:44:42.368Z,100292.48
2018-12-08T06:47:23.478Z,100280.41
2018-12-08T06:53:04.738Z,100285.08
2018-12-08T06:56:07.026Z,100282.53
2018-12-08T06:58:48.362Z,100280.26
2018-12-08T07:01:32.000Z,100281.83
2018-12-08T07:04:13.373Z,100287.47
2018-12-08T07:07:02.058Z,100288.08
2018-12-08T07:09:45.015Z,100300.91
2018-12-08T07:12:28.546Z,100305.91
2018-12-08T07:15:09.927Z,100303.28
2018-12-08T07:17:51.022Z,100309.14
2018-12-08T07:20:34.333Z,100308.63
2018-12-08T07:23:16.387Z,100313.09
2018-12-08T07:26:01.550Z,100312.37
2018-12-08T07:28:43.334Z,100319.32
2018-12-08T07:31:25.434Z,100315.26
2018-12-08T07:34:09.084Z,100326.27
2018-12-08T07:36:52.448Z,100321.47
2018-12-08T07:39:35.529Z,100330.42
2018-12-08T07:45:34.178Z,100329.77
2018-12-08T07:48:19.472Z,100334.47
2018-12-08T07:51:01.894Z,100341.64
2018-12-08T07:53:44.578Z,100334.94
2018-12-08T07:56:30.961Z,100344.52
2018-12-08T07:59:16.484Z,100347.00
2018-12-08T08:01:57.957Z,100341.63
2018-12-08T08:04:41.689Z,100335.50
2018-12-08T08:07:23.198Z,100341.98
2018-12-08T08:10:06.581Z,100356.48
2018-12-08T08:12:48.499Z,100350.64
2018-12-08T08:15:35.084Z,100351.41
2018-12-08T08:18:15.964Z,100354.78
2018-12-08T08:20:56.845Z,100351.69
2018-12-08T08:23:37.386Z,100367.11
2018-12-08T08:26:18.323Z,100357.39
2018-12-08T08:28:58.158Z,100362.40
2018-12-08T08:31:38.609Z,100364.20
2018-12-08T08:34:20.239Z,100364.31
2018-12-08T08:37:01.323Z,100368.02
2018-12-08T08:39:41.902Z,100366.38
2018-12-08T08:42:23.849Z,100367.21
2018-12-08T08:45:04.379Z,100367.00
2018-12-08T08:47:45.888Z,100367.78
2018-12-08T08:50:27.674Z,100372.48
2018-12-08T08:53:09.604Z,100373.22
2018-12-08T08:55:50.402Z,100374.91
2018-12-08T08:58:31.399Z,100370.70
2018-12-08T09:01:13.265Z,100375.83
2018-12-08T09:03:55.745Z,100360.20
2018-12-08T09:06:36.396Z,100373.14
2018-12-08T09:09:17.651Z,100384.97
2018-12-08T09:11:57.803Z,100375.67
2018-12-08T09:14:38.764Z,100376.00
2018-12-08T09:17:18.933Z,100379.36
2018-12-08T09:19:59.750Z,100383.64
2018-12-08T09:22:40.196Z,100370.49
2018-12-08T09:25:20.421Z,100384.62
2018-12-08T09:28:00.099Z,100380.02
2018-12-08T09:30:41.301Z,100374.66
2018-12-08T09:33:20.526Z,100372.57
2018-12-08T09:36:01.603Z,100367.41
2018-12-08T09:38:43.191Z,100366.75
2018-12-08T09:41:22.916Z,100366.45
2018-12-08T09:44:02.269Z,100363.16
2018-12-08T09:46:43.052Z,100364.12
2018-12-08T09:49:22.448Z,100364.86
2018-12-08T09:52:01.876Z,100364.67
2018-12-08T09:54:41.795Z,100368.73
2018-12-08T09:57:27.847Z,100374.23
2018-12-08T10:00:10.027Z,100386.10
2018-12-08T10:02:52.330Z,100374.07
2018-12-08T10:05:32.985Z,100373.28
2018-12-08T10:08:12.941Z,100379.81
2018-12-08T10:10:52.613Z,100385.84
2018-12-08T10:13:35.528Z,100382.34
2018-12-08T10:16:16.925Z,100380.50
2018-12-08T10:19:00.698Z,100379.37
2018-12-08T10:21:46.696Z,100374.66
2018-12-08T10:24:46.323Z,100382.59
2018-12-08T10:30:54.158Z,100379.19
2018-12-08T10:33:35.488Z,100370.11
2018-12-08T10:36:17.662Z,100382.94
2018-12-08T10:38:59.739Z,100382.50
2018-12-08T10:41:39.580Z,100374.81
2018-12-08T10:44:20.330Z,100385.10
2018-12-08T10:47:00.106Z,100378.50
2018-12-08T10:49:40.609Z,100380.30
2018-12-08T10:52:22.465Z,100384.91
2018-12-08T10:55:03.041Z,100377.08
2018-12-08T10:57:48.845Z,100373.35
2018-12-08T11:00:32.383Z,100375.76
2018-12-08T11:03:16.388Z,100381.41
2018-12-08T11:05:56.067Z,100382.36
2018-12-08T11:08:36.459Z,100380.39
2018-12-08T11:11:17.384Z,100386.67
2018-12-08T11:13:56.855Z,100387.35
2018-12-08T11:16:38.165Z,100386.22
2018-12-08T11:19:19.004Z,100397.08
2018-12-08T11:22:01.694Z,100404.19
2018-12-08T11:24:41.951Z,100404.17
2018-12-08T11:27:22.259Z,100406.73
2018-12-08T11:30:02.736Z,100415.64
2018-12-08T11:32:43.276Z,100416.15
2018-12-08T11:35:26.882Z,100413.30
2018-12-08T11:38:11.112Z,100414.94
2018-12-08T11:40:51.281Z,100410.13
2018-12-08T11:43:31.664Z,100412.77
2018-12-08T11:46:11.430Z,100415.95
2018-12-08T11:48:52.099Z,100402.13
2018-12-08T11:51:32.570Z,100403.44
2018-12-08T11:54:12.567Z,100410.52
2018-12-08T11:56:52.684Z,100410.60
2018-12-08T11:59:33.997Z,100411.83
2018-12-08T12:02:16.633Z,100417.19
2018-12-08T12:05:04.012Z,100422.36
2018-12-08T12:07:45.692Z,100427.72
2018-12-08T12:10:26.803Z,100436.86
2018-12-08T12:13:08.742Z,100436.85
2018-12-08T12:15:57.243Z,100437.12
2018-12-08T12:18:40.699Z,100427.47
2018-12-08T12:21:21.872Z,100426.03
2018-12-08T12:24:03.449Z,100424.09
2018-12-08T12:26:46.168Z,100429.91
2018-12-08T12:29:29.468Z,100415.54
2018-12-08T12:32:11.473Z,100428.47
2018-12-08T12:34:52.323Z,100427.80
2018-12-08T12:37:33.512Z,100433.48
2018-12-08T12:40:28.921Z,100439.72
2018-12-08T12:43:10.182Z,100441.35
2018-12-08T12:45:50.608Z,100428.42
2018-12-08T12:48:31.518Z,100442.97
2018-12-08T12:51:12.679Z,100439.95
2018-12-08T12:53:52.572Z,100438.72
2018-12-08T12:56:34.822Z,100434.63
2018-12-08T12:59:17.587Z,100437.47
2018-12-08T13:01:57.971Z,100433.64
2018-12-08T13:04:41.166Z,100429.59
2018-12-08T13:07:20.361Z,100430.01
2018-12-08T13:10:01.032Z,100424.65
2018-12-08T13:12:42.532Z,100434.80
2018-12-08T13:15:24.518Z,100436.68
2018-12-08T13:18:05.376Z,100434.92
2018-12-08T13:20:46.542Z,100439.04
2018-12-08T13:23:26.754Z,100431.89
2018-12-08T13:26:07.501Z,100439.82
2018-12-08T13:28:48.148Z,100439.04
2018-12-08T13:31:29.369Z,100439.27
2018-12-08T13:34:20.286Z,100433.42
2018-12-08T13:37:01.381Z,100435.12
2018-12-08T13:39:42.892Z,100447.64
2018-12-08T13:42:23.607Z,100449.72
2018-12-08T13:45:36.591Z,100453.02
2018-12-08T13:48:19.796Z,100458.17
2018-12-08T13:51:00.198Z,100465.87
2018-12-08T13:53:41.428Z,100462.12
2018-12-08T13:56:21.848Z,100454.64
2018-12-08T13:59:04.085Z,100460.65
2018-12-08T14:01:44.427Z,100460.07
2018-12-08T14:04:25.726Z,100459.97
2018-12-08T14:07:06.600Z,100459.72
2018-12-08T14:09:46.724Z,100451.92
2018-12-08T14:12:28.768Z,100466.49
2018-12-08T14:15:09.683Z,100461.44
2018-12-08T14:17:50.268Z,100461.92
2018-12-08T14:20:37.803Z,100465.69
2018-12-08T14:23:20.983Z,100471.39
2018-12-08T14:26:01.117Z,100473.12
2018-12-08T14:28:42.947Z,100471.71
2018-12-08T14:31:23.402Z,100472.21
2018-12-08T14:34:03.192Z,100480.27
2018-12-08T14:36:44.142Z,100476.86
2018-12-08T14:39:24.166Z,100480.90
2018-12-08T14:42:03.855Z,100483.44
2018-12-08T14:44:44.006Z,100479.56
2018-12-08T14:47:24.246Z,100475.69
2018-12-08T14:50:04.040Z,100470.67
2018-12-08T14:52:47.484Z,100469.44
2018-12-08T14:55:28.768Z,100479.75
2018-12-08T14:58:10.624Z,100474.06
2018-12-08T15:00:50.779Z,100476.27
2018-12-08T15:03:31.149Z,100472.05
2018-12-08T15:06:11.759Z,100474.87
2018-12-08T15:08:54.012Z,100475.88
2018-12-08T15:11:37.201Z,100474.16
2018-12-08T15:14:17.841Z,100478.88
2018-12-08T15:16:58.711Z,100465.36
2018-12-08T15:19:39.226Z,100465.62
2018-12-08T15:22:20.344Z,100453.03
2018-12-08T15:25:02.637Z,100461.59
2018-12-08T15:27:43.013Z,100457.80
2018-12-08T15:30:24.698Z,100463.55
2018-12-08T15:33:06.407Z,100460.70
2018-12-08T15:35:47.191Z,100461.41
2018-12-08T15:38:27.564Z,100462.47
2018-12-08T15:41:10.118Z,100462.69
2018-12-08T15:43:50.546Z,100469.56
2018-12-08T15:46:31.796Z,100480.06
2018-12-08T15:49:13.470Z,100468.22
2018-12-08T15:51:54.041Z,100467.48
2018-12-08T15:54:35.015Z,100473.95
2018-12-08T15:57:15.420Z,100472.23
2018-12-08T15:59:56.583Z,100477.54
2018-12-08T16:02:37.311Z,100468.05
2018-12-08T16:05:17.974Z,100477.06
2018-12-08T16:07:58.458Z,100480.47
2018-12-08T16:10:39.588Z,100475.20
2018-12-08T16:13:19.726Z,100475.81
2018-12-08T16:16:00.314Z,100472.47
2018-12-08T16:18:40.992Z,100475.48
2018-12-08T16:21:21.737Z,100475.75
2018-12-08T16:24:01.605Z,100477.54
2018-12-08T16:26:42.439Z,100471.25
2018-12-08T16:29:23.621Z,100479.66
2018-12-08T16:32:08.129Z,100482.02
2018-12-08T16:34:50.098Z,100487.02
2018-12-08T16:37:30.717Z,100482.23
2018-12-08T16:40:12.831Z,100489.11
2018-12-08T16:42:57.246Z,100499.39
2018-12-08T16:45:37.208Z,100498.94
2018-12-08T16:48:22.830Z,100492.31
2018-12-08T16:51:05.306Z,100500.63
2018-12-08T16:53:46.424Z,100495.50
2018-12-08T16:56:27.868Z,100504.59
2018-12-08T16:59:08.618Z,100498.92
2018-12-08T17:01:55.752Z,100497.30
2018-12-08T17:04:35.792Z,100502.47
2018-12-08T17:07:16.479Z,100498.15
2018-12-08T17:09:56.972Z,100495.09
2018-12-08T17:12:37.088Z,100504.38
2018-12-08T17:15:18.374Z,100507.68
2018-12-08T17:17:59.023Z,100508.83
2018-12-08T17:20:39.402Z,100507.95
2018-12-08T17:23:21.943Z,100509.34
2018-12-08T17:26:01.510Z,100512.19
2018-12-08T17:28:41.874Z,100507.58
2018-12-08T17:31:21.817Z,100510.20
2018-12-08T17:34:00.522Z,100510.89
2018-12-08T17:36:40.063Z,100521.92
2018-12-08T17:39:18.670Z,100522.95
2018-12-08T17:41:57.397Z,100531.44
2018-12-08T17:44:36.019Z,100534.97
2018-12-08T17:47:14.544Z,100535.07
2018-12-08T17:49:53.252Z,100538.86
2018-12-08T17:52:33.681Z,100542.96
2018-12-08T17:55:12.378Z,100542.34
2018-12-08T17:57:51.101Z,100540.12
2018-12-08T18:00:29.820Z,100538.25
2018-12-08T18:03:08.553Z,100527.55
2018-12-08T18:05:47.392Z,100527.18
2018-12-08T18:08:26.575Z,100539.52
2018-12-08T18:11:05.328Z,100544.78
2018-12-08T18:13:44.355Z,100540.16
2018-12-08T18:16:23.564Z,100533.28
2018-12-08T18:19:03.483Z,100531.81
2018-12-08T18:21:42.609Z,100542.02
2018-12-08T18:24:21.512Z,100541.54
2018-12-08T18:27:00.835Z,100537.20
2018-12-08T18:29:39.924Z,100534.41
2018-12-08T18:32:18.951Z,100546.61
2018-12-08T18:34:57.895Z,100542.70
2018-12-08T18:37:36.849Z,100540.40
2018-12-08T18:40:15.791Z,100545.80
2018-12-08T18:42:56.508Z,100546.62
2018-12-08T18:45:35.286Z,100544.83
2018-12-08T18:48:14.264Z,100549.23
2018-12-08T18:50:54.120Z,100540.05
2018-12-08T18:53:32.698Z,100555.10
2018-12-08T18:56:15.630Z,100559.34
2018-12-08T18:58:54.606Z,100562.14
2018-12-08T19:01:33.499Z,100565.53
2018-12-08T19:04:12.258Z,100559.11
2018-12-08T19:06:51.948Z,100561.41
2018-12-08T19:09:35.578Z,100563.56
2018-12-08T19:12:15.566Z,100560.75
2018-12-08T19:14:55.161Z,100565.22
2018-12-08T19:17:33.875Z,100555.53
2018-12-08T19:20:14.991Z,100559.98
2018-12-08T19:22:53.997Z,100557.09
2018-12-08T19:25:32.936Z,100565.69
2018-12-08T19:28:12.561Z,100570.48
2018-12-08T19:30:59.626Z,100575.25
2018-12-08T19:33:38.655Z,100575.82
2018-12-08T19:36:18.641Z,100568.08
2018-12-08T19:38:57.716Z,100562.17
2018-12-08T19:41:36.614Z,100553.67
2018-12-08T19:44:15.471Z,100556.19
2018-12-08T19:46:54.287Z,100563.44
2018-12-08T19:49:37.443Z,100566.11
2018-12-08T19:52:18.455Z,100572.08
2018-12-08T19:54:57.369Z,100573.89
2018-12-08T19:57:36.343Z,100576.06
2018-12-08T20:00:16.653Z,100575.11
2018-12-08T20:02:56.751Z,100576.23
2018-12-08T20:05:35.354Z,100572.36
2018-12-08T20:08:14.107Z,100570.42
2018-12-08T20:11:00.913Z,100573.92
2018-12-08T20:13:39.739Z,100571.30
2018-12-08T20:16:18.554Z,100569.70
2018-12-08T20:18:57.048Z,100575.48
2018-12-08T20:21:37.200Z,100577.23
2018-12-08T20:24:16.052Z,100575.48
2018-12-08T20:26:54.767Z,100568.85
2018-12-08T20:29:33.510Z,100580.40
2018-12-08T20:32:12.108Z,100575.08
2018-12-08T20:34:52.603Z,100573.83
2018-12-08T20:37:31.444Z,100587.98
2018-12-08T20:40:10.813Z,100583.27
2018-12-08T20:42:50.452Z,100586.34
2018-12-08T20:45:29.615Z,100584.94
2018-12-08T20:48:11.602Z,100588.53
2018-12-08T20:50:51.668Z,100589.48
2018-12-08T20:53:30.570Z,100587.50
2018-12-08T20:56:09.331Z,100591.09
2018-12-08T20:58:47.867Z,100594.27
2018-12-08T21:01:29.612Z,100600.05
2018-12-08T21:04:08.633Z,100599.34
2018-12-08T21:06:47.547Z,100590.52
2018-12-08T21:09:26.387Z,100596.87
2018-12-08T21:12:09.770Z,100602.13
2018-12-08T21:14:48.734Z,100593.02
2018-12-08T21:17:27.697Z,100595.20
2018-12-08T21:20:06.915Z,100604.11
2018-12-08T21:22:46.048Z,100595.48
2018-12-08T21:25:26.094Z,100590.92
2018-12-08T21:28:05.366Z,100599.30
2018-12-08T21:30:44.409Z,100595.33
2018-12-08T21:33:23.455Z,100604.03
2018-12-08T21:36:03.798Z,100600.11
2018-12-08T21:38:44.021Z,100595.70
2018-12-08T21:41:24.459Z,100600.34
2018-12-08T21:44:03.600Z,100605.38
2018-12-08T21:46:42.519Z,100604.81
2018-12-08T21:49:23.303Z,100607.00
2018-12-08T21:52:46.145Z,100609.21
2018-12-08T21:55:24.982Z,100600.06
2018-12-08T21:58:05.055Z,100606.25
2018-12-08T22:00:44.111Z,100606.16
2018-12-08T22:03:22.700Z,100599.87
2018-12-08T22:06:02.185Z,100602.15
2018-12-08T22:08:41.125Z,100602.92
2018-12-08T22:11:20.043Z,100607.30
2018-12-08T22:13:59.845Z,100611.07
2018-12-08T22:19:57.812Z,100616.95
2018-12-08T22:22:37.254Z,100617.51
2018-12-08T22:25:16.056Z,100624.75
2018-12-08T22:31:16.937Z,100644.09
2018-12-08T22:33:55.897Z,100634.63
2018-12-08T22:36:34.941Z,100643.66
2018-12-08T22:39:14.237Z,100635.64
2018-12-08T22:41:53.529Z,100644.06
2018-12-08T22:44:32.637Z,100643.30
2018-12-08T22:47:12.583Z,100650.76
2018-12-08T22:49:54.535Z,100646.26
2018-12-08T22:52:33.432Z,100640.52
2018-12-08T22:55:12.338Z,100638.83
2018-12-08T22:57:52.731Z,100648.66
2018-12-08T23:00:45.359Z,100650.26
2018-12-08T23:03:24.177Z,100646.62
2018-12-08T23:06:04.471Z,100653.59
2018-12-08T23:08:43.387Z,100655.13
2018-12-08T23:11:22.358Z,100652.25
2018-12-08T23:14:01.534Z,100653.27
2018-12-08T23:16:40.641Z,100663.38
2018-12-08T23:19:20.435Z,100666.17
2018-12-08T23:21:59.463Z,100670.98
2018-12-08T23:24:39.759Z,100673.75
2018-12-08T23:27:20.546Z,100676.50
2018-12-08T23:29:59.567Z,100675.63
2018-12-08T23:32:38.615Z,100682.94
2018-12-08T23:35:17.872Z,100676.46
2018-12-08T23:37:57.084Z,100692.69
2018-12-08T23:40:36.276Z,100684.46
2018-12-08T23:43:15.592Z,100693.84
2018-12-08T23:45:54.523Z,100701.13
2018-12-08T23:48:35.028Z,100698.72
2018-12-08T23:51:15.510Z,100703.12
2018-12-08T23:53:56.157Z,100705.36
2018-12-08T23:56:35.363Z,100710.14
2018-12-08T23:59:14.854Z,100703.38
